sensor_id;sensor_type;location;lat;lon;timestamp;pressure;altitude;pressure_sealevel;temperature;humidity
30724;BME280;17473;52.286;20.930;2023-04-23T00:01:18;100009.56;;;13.69;46.17
30724;BME280;17473;52.286;20.930;2023-04-23T00:03:47;100013.09;;;13.68;47.02
30724;BME280;17473;52.286;20.930;2023-04-23T00:06:16;100004.09;;;13.57;47.62
30724;BME280;17473;52.286;20.930;2023-04-23T00:08:43;100014.78;;;13.61;47.12
30724;BME280;17473;52.286;20.930;2023-04-23T00:11:11;100010.44;;;13.67;46.48
30724;BME280;17473;52.286;20.930;2023-04-23T00:13:38;100003.16;;;13.53;46.54
30724;BME280;17473;52.286;20.930;2023-04-23T00:16:06;100004.78;;;13.45;46.42
30724;BME280;17473;52.286;20.930;2023-04-23T00:18:34;100007.53;;;13.51;46.42
30724;BME280;17473;52.286;20.930;2023-04-23T00:21:01;99999.38;;;13.39;46.84
30724;BME280;17473;52.286;20.930;2023-04-23T00:23:28;100007.28;;;13.37;46.80
30724;BME280;17473;52.286;20.930;2023-04-23T00:25:55;100003.84;;;13.41;46.67
30724;BME280;17473;52.286;20.930;2023-04-23T00:28:22;99995.75;;;13.35;46.88
30724;BME280;17473;52.286;20.930;2023-04-23T00:30:49;99989.59;;;13.35;46.71
30724;BME280;17473;52.286;20.930;2023-04-23T00:33:16;99993.88;;;13.28;47.13
30724;BME280;17473;52.286;20.930;2023-04-23T00:35:44;99985.00;;;13.27;46.95
30724;BME280;17473;52.286;20.930;2023-04-23T00:38:11;99985.91;;;13.26;47.21
30724;BME280;17473;52.286;20.930;2023-04-23T00:40:38;99990.25;;;13.23;47.21
30724;BME280;17473;52.286;20.930;2023-04-23T00:43:06;99986.56;;;13.14;47.28
30724;BME280;17473;52.286;20.930;2023-04-23T00:45:35;99996.59;;;13.33;47.12
30724;BME280;17473;52.286;20.930;2023-04-23T00:48:02;99993.75;;;13.20;47.64
30724;BME280;17473;52.286;20.930;2023-04-23T00:50:29;99998.09;;;13.17;47.73
30724;BME280;17473;52.286;20.930;2023-04-23T00:52:56;99990.94;;;13.11;47.79
30724;BME280;17473;52.286;20.930;2023-04-23T00:55:24;99988.19;;;13.06;47.66
30724;BME280;17473;52.286;20.930;2023-04-23T00:57:51;99991.78;;;13.10;47.78
30724;BME280;17473;52.286;20.930;2023-04-23T01:00:18;99994.38;;;13.05;47.84
30724;BME280;17473;52.286;20.930;2023-04-23T01:02:47;99996.13;;;13.03;47.86
30724;BME280;17473;52.286;20.930;2023-04-23T01:05:16;99996.03;;;12.98;48.10
30724;BME280;17473;52.286;20.930;2023-04-23T01:07:44;99998.56;;;12.92;48.33
30724;BME280;17473;52.286;20.930;2023-04-23T01:10:12;100007.25;;;12.85;48.67
30724;BME280;17473;52.286;20.930;2023-04-23T01:12:39;100007.19;;;12.82;48.74
30724;BME280;17473;52.286;20.930;2023-04-23T01:15:07;100008.28;;;12.93;48.37
30724;BME280;17473;52.286;20.930;2023-04-23T01:17:35;99999.91;;;12.68;49.06
30724;BME280;17473;52.286;20.930;2023-04-23T01:20:03;100003.41;;;12.67;48.97
30724;BME280;17473;52.286;20.930;2023-04-23T01:22:36;99999.91;;;12.70;48.96
30724;BME280;17473;52.286;20.930;2023-04-23T01:25:04;99991.78;;;12.59;48.98
30724;BME280;17473;52.286;20.930;2023-04-23T01:27:32;100004.44;;;12.76;48.86
30724;BME280;17473;52.286;20.930;2023-04-23T01:30:05;100003.66;;;12.80;48.93
30724;BME280;17473;52.286;20.930;2023-04-23T01:32:34;100009.53;;;12.65;49.36
30724;BME280;17473;52.286;20.930;2023-04-23T01:35:01;100001.84;;;12.79;48.76
30724;BME280;17473;52.286;20.930;2023-04-23T01:37:30;100006.06;;;12.67;49.38
30724;BME280;17473;52.286;20.930;2023-04-23T01:39:58;100003.25;;;12.60;49.47
30724;BME280;17473;52.286;20.930;2023-04-23T01:42:25;99997.84;;;12.53;49.62
30724;BME280;17473;52.286;20.930;2023-04-23T01:44:52;99999.78;;;12.62;49.43
30724;BME280;17473;52.286;20.930;2023-04-23T01:47:19;100002.44;;;12.62;49.51
30724;BME280;17473;52.286;20.930;2023-04-23T01:49:47;99994.31;;;12.53;49.69
30724;BME280;17473;52.286;20.930;2023-04-23T01:52:14;100001.34;;;12.52;49.59
30724;BME280;17473;52.286;20.930;2023-04-23T01:54:41;99999.78;;;12.62;49.61
30724;BME280;17473;52.286;20.930;2023-04-23T01:57:09;99995.81;;;12.40;50.10
30724;BME280;17473;52.286;20.930;2023-04-23T01:59:36;100002.00;;;12.41;50.00
30724;BME280;17473;52.286;20.930;2023-04-23T02:02:04;100002.06;;;12.44;50.03
30724;BME280;17473;52.286;20.930;2023-04-23T02:04:32;99995.00;;;12.44;50.04
30724;BME280;17473;52.286;20.930;2023-04-23T02:07:00;100002.84;;;12.40;50.28
30724;BME280;17473;52.286;20.930;2023-04-23T02:09:27;100000.97;;;12.34;50.62
30724;BME280;17473;52.286;20.930;2023-04-23T02:11:54;99996.31;;;12.22;50.78
30724;BME280;17473;52.286;20.930;2023-04-23T02:14:23;100001.78;;;12.30;50.65
30724;BME280;17473;52.286;20.930;2023-04-23T02:16:50;99998.31;;;12.34;50.41
30724;BME280;17473;52.286;20.930;2023-04-23T02:19:17;99997.19;;;12.21;50.73
30724;BME280;17473;52.286;20.930;2023-04-23T02:21:44;99992.69;;;12.17;50.93
30724;BME280;17473;52.286;20.930;2023-04-23T02:24:12;100001.50;;;12.16;50.77
30724;BME280;17473;52.286;20.930;2023-04-23T02:26:39;99994.22;;;12.05;51.13
30724;BME280;17473;52.286;20.930;2023-04-23T02:29:06;99997.72;;;12.04;51.25
30724;BME280;17473;52.286;20.930;2023-04-23T02:31:33;99996.00;;;12.07;51.37
30724;BME280;17473;52.286;20.930;2023-04-23T02:34:00;99990.63;;;12.03;51.51
30724;BME280;17473;52.286;20.930;2023-04-23T02:36:27;99996.84;;;12.05;51.55
30724;BME280;17473;52.286;20.930;2023-04-23T02:38:56;99992.53;;;12.09;51.56
30724;BME280;17473;52.286;20.930;2023-04-23T02:41:23;99992.41;;;12.03;51.59
30724;BME280;17473;52.286;20.930;2023-04-23T02:43:50;99987.00;;;11.98;51.73
30724;BME280;17473;52.286;20.930;2023-04-23T02:46:17;99986.78;;;11.90;51.88
30724;BME280;17473;52.286;20.930;2023-04-23T02:48:45;99991.38;;;11.98;51.86
30724;BME280;17473;52.286;20.930;2023-04-23T02:51:12;99987.00;;;11.98;52.00
30724;BME280;17473;52.286;20.930;2023-04-23T02:53:40;99986.19;;;12.01;51.68
30724;BME280;17473;52.286;20.930;2023-04-23T02:56:07;99993.16;;;11.97;52.01
30724;BME280;17473;52.286;20.930;2023-04-23T02:58:34;99983.28;;;11.92;52.13
30724;BME280;17473;52.286;20.930;2023-04-23T03:01:02;99991.97;;;11.84;52.58
30724;BME280;17473;52.286;20.930;2023-04-23T03:03:30;99974.47;;;11.91;51.93
30724;BME280;17473;52.286;20.930;2023-04-23T03:06:01;99987.97;;;12.02;52.09
30724;BME280;17473;52.286;20.930;2023-04-23T03:08:28;99991.13;;;11.87;52.48
30724;BME280;17473;52.286;20.930;2023-04-23T03:10:55;99990.91;;;11.76;52.55
30724;BME280;17473;52.286;20.930;2023-04-23T03:13:22;99988.06;;;11.68;53.09
30724;BME280;17473;52.286;20.930;2023-04-23T03:15:51;99993.66;;;11.82;52.57
30724;BME280;17473;52.286;20.930;2023-04-23T03:18:18;99986.84;;;11.92;52.45
30724;BME280;17473;52.286;20.930;2023-04-23T03:20:46;99989.25;;;11.81;52.90
30724;BME280;17473;52.286;20.930;2023-04-23T03:23:13;99980.44;;;11.82;52.81
30724;BME280;17473;52.286;20.930;2023-04-23T03:25:40;99980.44;;;11.81;52.79
30724;BME280;17473;52.286;20.930;2023-04-23T03:28:07;99987.81;;;11.96;52.66
30724;BME280;17473;52.286;20.930;2023-04-23T03:30:34;99981.25;;;11.78;52.89
30724;BME280;17473;52.286;20.930;2023-04-23T03:33:01;99977.78;;;11.81;52.96
30724;BME280;17473;52.286;20.930;2023-04-23T03:35:29;99976.91;;;11.82;53.19
30724;BME280;17473;52.286;20.930;2023-04-23T03:37:56;99983.13;;;11.84;53.06
30724;BME280;17473;52.286;20.930;2023-04-23T03:40:23;99981.03;;;11.69;53.54
30724;BME280;17473;52.286;20.930;2023-04-23T03:42:50;99979.69;;;11.88;52.98
30724;BME280;17473;52.286;20.930;2023-04-23T03:45:17;99978.81;;;11.87;52.97
30724;BME280;17473;52.286;20.930;2023-04-23T03:47:44;99980.69;;;11.93;52.59
30724;BME280;17473;52.286;20.930;2023-04-23T03:50:11;99980.53;;;11.85;53.23
30724;BME280;17473;52.286;20.930;2023-04-23T03:52:39;99973.88;;;12.46;51.87
30724;BME280;17473;52.286;20.930;2023-04-23T03:55:07;99966.59;;;13.35;49.86
30724;BME280;17473;52.286;20.930;2023-04-23T03:57:37;99965.16;;;14.19;47.58
30724;BME280;17473;52.286;20.930;2023-04-23T04:00:05;99956.00;;;14.70;45.89
30724;BME280;17473;52.286;20.930;2023-04-23T04:02:38;99970.84;;;15.47;44.31
30724;BME280;17473;52.286;20.930;2023-04-23T04:05:07;99978.31;;;16.05;43.00
30724;BME280;17473;52.286;20.930;2023-04-23T04:07:36;99969.69;;;16.78;41.42
30724;BME280;17473;52.286;20.930;2023-04-23T04:10:05;99983.13;;;17.16;40.50
30724;BME280;17473;52.286;20.930;2023-04-23T04:12:32;99966.16;;;17.76;39.32
30724;BME280;17473;52.286;20.930;2023-04-23T04:14:59;99971.00;;;18.88;37.38
30724;BME280;17473;52.286;20.930;2023-04-23T04:17:26;99977.72;;;19.45;36.34
30724;BME280;17473;52.286;20.930;2023-04-23T04:19:53;99977.81;;;20.26;34.60
30724;BME280;17473;52.286;20.930;2023-04-23T04:22:20;99977.34;;;21.21;33.43
30724;BME280;17473;52.286;20.930;2023-04-23T04:24:47;99978.03;;;21.85;32.52
30724;BME280;17473;52.286;20.930;2023-04-23T04:27:18;99976.03;;;22.42;31.03
30724;BME280;17473;52.286;20.930;2023-04-23T04:29:45;99974.53;;;22.27;31.48
30724;BME280;17473;52.286;20.930;2023-04-23T04:32:12;99973.75;;;22.64;30.56
30724;BME280;17473;52.286;20.930;2023-04-23T04:34:39;99963.75;;;23.80;29.17
30724;BME280;17473;52.286;20.930;2023-04-23T04:37:07;99983.31;;;24.21;28.30
30724;BME280;17473;52.286;20.930;2023-04-23T04:39:36;99976.84;;;24.27;28.16
30724;BME280;17473;52.286;20.930;2023-04-23T04:42:03;99977.44;;;24.68;27.53
30724;BME280;17473;52.286;20.930;2023-04-23T04:44:33;99964.47;;;25.35;27.13
30724;BME280;17473;52.286;20.930;2023-04-23T04:47:04;99975.88;;;25.71;26.35
30724;BME280;17473;52.286;20.930;2023-04-23T04:49:34;99960.50;;;25.46;26.44
30724;BME280;17473;52.286;20.930;2023-04-23T04:52:01;99966.88;;;26.45;25.38
30724;BME280;17473;52.286;20.930;2023-04-23T04:54:29;99970.31;;;27.18;24.36
30724;BME280;17473;52.286;20.930;2023-04-23T04:56:56;99975.34;;;27.28;24.08
30724;BME280;17473;52.286;20.930;2023-04-23T04:59:23;99968.00;;;28.54;23.02
30724;BME280;17473;52.286;20.930;2023-04-23T05:01:50;99965.72;;;29.02;21.98
30724;BME280;17473;52.286;20.930;2023-04-23T05:04:17;99967.00;;;29.66;21.44
30724;BME280;17473;52.286;20.930;2023-04-23T05:06:44;99960.84;;;30.65;20.62
30724;BME280;17473;52.286;20.930;2023-04-23T05:09:11;99961.72;;;30.82;20.38
30724;BME280;17473;52.286;20.930;2023-04-23T05:11:38;99961.84;;;31.73;19.38
30724;BME280;17473;52.286;20.930;2023-04-23T05:14:06;99958.38;;;31.86;19.29
30724;BME280;17473;52.286;20.930;2023-04-23T05:16:34;99964.06;;;31.04;19.66
30724;BME280;17473;52.286;20.930;2023-04-23T05:19:01;99951.31;;;31.81;19.46
30724;BME280;17473;52.286;20.930;2023-04-23T05:21:28;99960.53;;;31.95;19.22
30724;BME280;17473;52.286;20.930;2023-04-23T05:23:55;99963.63;;;32.90;18.68
30724;BME280;17473;52.286;20.930;2023-04-23T05:26:22;99961.25;;;33.26;18.08
30724;BME280;17473;52.286;20.930;2023-04-23T05:28:49;99959.03;;;34.11;17.47
30724;BME280;17473;52.286;20.930;2023-04-23T05:31:16;99956.38;;;34.36;17.11
30724;BME280;17473;52.286;20.930;2023-04-23T05:33:43;99964.06;;;34.05;17.20
30724;BME280;17473;52.286;20.930;2023-04-23T05:36:16;99960.88;;;34.37;17.06
30724;BME280;17473;52.286;20.930;2023-04-23T05:38:44;99961.19;;;34.58;16.69
30724;BME280;17473;52.286;20.930;2023-04-23T05:41:11;99958.41;;;34.71;16.72
30724;BME280;17473;52.286;20.930;2023-04-23T05:43:38;99959.31;;;34.58;16.76
30724;BME280;17473;52.286;20.930;2023-04-23T05:46:05;99961.31;;;34.93;16.70
30724;BME280;17473;52.286;20.930;2023-04-23T05:48:34;99955.00;;;36.00;15.81
30724;BME280;17473;52.286;20.930;2023-04-23T05:51:01;99951.88;;;35.46;15.68
30724;BME280;17473;52.286;20.930;2023-04-23T05:53:28;99957.41;;;36.04;15.76
30724;BME280;17473;52.286;20.930;2023-04-23T05:55:55;99957.66;;;36.24;15.28
30724;BME280;17473;52.286;20.930;2023-04-23T05:58:22;99960.31;;;36.71;14.71
30724;BME280;17473;52.286;20.930;2023-04-23T06:00:49;99959.91;;;37.31;14.70
30724;BME280;17473;52.286;20.930;2023-04-23T06:03:18;99951.53;;;37.21;14.55
30724;BME280;17473;52.286;20.930;2023-04-23T06:05:46;99958.16;;;37.30;14.78
30724;BME280;17473;52.286;20.930;2023-04-23T06:08:13;99949.84;;;37.74;14.00
30724;BME280;17473;52.286;20.930;2023-04-23T06:10:40;99946.69;;;38.00;14.16
30724;BME280;17473;52.286;20.930;2023-04-23T06:13:07;99948.69;;;37.98;13.63
30724;BME280;17473;52.286;20.930;2023-04-23T06:15:34;99954.06;;;37.13;14.34
30724;BME280;17473;52.286;20.930;2023-04-23T06:18:01;99952.09;;;37.48;14.01
30724;BME280;17473;52.286;20.930;2023-04-23T06:20:29;99946.53;;;37.38;14.25
30724;BME280;17473;52.286;20.930;2023-04-23T06:22:56;99950.00;;;37.40;13.89
30724;BME280;17473;52.286;20.930;2023-04-23T06:25:23;99956.03;;;38.40;13.17
30724;BME280;17473;52.286;20.930;2023-04-23T06:27:51;99955.03;;;38.41;13.38
30724;BME280;17473;52.286;20.930;2023-04-23T06:30:18;99957.66;;;38.83;12.85
30724;BME280;17473;52.286;20.930;2023-04-23T06:32:45;99954.38;;;39.58;12.81
30724;BME280;17473;52.286;20.930;2023-04-23T06:35:12;99964.31;;;38.80;13.51
30724;BME280;17473;52.286;20.930;2023-04-23T06:37:39;99949.41;;;39.62;12.33
30724;BME280;17473;52.286;20.930;2023-04-23T06:40:07;99949.66;;;38.80;13.48
30724;BME280;17473;52.286;20.930;2023-04-23T06:42:34;99942.66;;;38.76;12.88
30724;BME280;17473;52.286;20.930;2023-04-23T06:45:01;99949.44;;;39.42;12.57
30724;BME280;17473;52.286;20.930;2023-04-23T06:47:32;99945.09;;;39.79;12.15
30724;BME280;17473;52.286;20.930;2023-04-23T06:49:59;99945.50;;;39.64;12.33
30724;BME280;17473;52.286;20.930;2023-04-23T06:52:26;99950.56;;;40.74;11.87
30724;BME280;17473;52.286;20.930;2023-04-23T06:54:53;99943.78;;;39.73;12.22
30724;BME280;17473;52.286;20.930;2023-04-23T06:57:20;99930.63;;;39.95;12.47
30724;BME280;17473;52.286;20.930;2023-04-23T06:59:47;99932.56;;;39.65;12.37
30724;BME280;17473;52.286;20.930;2023-04-23T07:02:14;99930.84;;;39.44;12.72
30724;BME280;17473;52.286;20.930;2023-04-23T07:04:42;99938.53;;;39.60;12.86
30724;BME280;17473;52.286;20.930;2023-04-23T07:07:10;99933.88;;;39.41;12.29
30724;BME280;17473;52.286;20.930;2023-04-23T07:09:37;99943.63;;;39.84;12.09
30724;BME280;17473;52.286;20.930;2023-04-23T07:12:05;99933.16;;;39.58;12.54
30724;BME280;17473;52.286;20.930;2023-04-23T07:14:32;99926.75;;;39.09;12.64
30724;BME280;17473;52.286;20.930;2023-04-23T07:16:59;99932.25;;;39.19;12.63
30724;BME280;17473;52.286;20.930;2023-04-23T07:19:26;99923.25;;;38.87;12.58
30724;BME280;17473;52.286;20.930;2023-04-23T07:21:53;99932.28;;;37.75;13.18
30724;BME280;17473;52.286;20.930;2023-04-23T07:24:20;99925.59;;;37.35;13.33
30724;BME280;17473;52.286;20.930;2023-04-23T07:26:47;99930.94;;;35.92;14.52
30724;BME280;17473;52.286;20.930;2023-04-23T07:29:15;99917.72;;;35.26;14.61
30724;BME280;17473;52.286;20.930;2023-04-23T07:31:42;99930.75;;;34.87;14.99
30724;BME280;17473;52.286;20.930;2023-04-23T07:34:09;99926.53;;;35.42;14.96
30724;BME280;17473;52.286;20.930;2023-04-23T07:36:36;99926.00;;;34.64;15.30
30724;BME280;17473;52.286;20.930;2023-04-23T07:39:04;99921.81;;;33.96;15.88
30724;BME280;17473;52.286;20.930;2023-04-23T07:41:32;99924.78;;;33.39;15.76
30724;BME280;17473;52.286;20.930;2023-04-23T07:43:59;99934.28;;;31.92;16.87
30724;BME280;17473;52.286;20.930;2023-04-23T07:46:26;99912.28;;;31.50;16.99
30724;BME280;17473;52.286;20.930;2023-04-23T07:48:53;99916.66;;;31.53;17.01
30724;BME280;17473;52.286;20.930;2023-04-23T07:51:21;99909.34;;;31.98;17.13
30724;BME280;17473;52.286;20.930;2023-04-23T07:53:52;99923.56;;;32.47;16.80
30724;BME280;17473;52.286;20.930;2023-04-23T07:56:24;99922.56;;;31.76;17.14
30724;BME280;17473;52.286;20.930;2023-04-23T07:58:51;99910.94;;;31.58;17.16
30724;BME280;17473;52.286;20.930;2023-04-23T08:01:19;99918.78;;;32.07;17.07
30724;BME280;17473;52.286;20.930;2023-04-23T08:03:47;99923.66;;;31.73;17.46
30724;BME280;17473;52.286;20.930;2023-04-23T08:06:15;99917.03;;;32.06;16.77
30724;BME280;17473;52.286;20.930;2023-04-23T08:08:42;99913.16;;;31.65;16.76
30724;BME280;17473;52.286;20.930;2023-04-23T08:11:09;99917.00;;;30.54;18.04
30724;BME280;17473;52.286;20.930;2023-04-23T08:13:37;99910.81;;;30.82;18.25
30724;BME280;17473;52.286;20.930;2023-04-23T08:16:04;99912.75;;;30.96;17.81
30724;BME280;17473;52.286;20.930;2023-04-23T08:18:32;99901.53;;;31.92;17.38
30724;BME280;17473;52.286;20.930;2023-04-23T08:21:00;99910.53;;;31.49;17.55
30724;BME280;17473;52.286;20.930;2023-04-23T08:23:27;99890.28;;;29.77;18.55
30724;BME280;17473;52.286;20.930;2023-04-23T08:25:54;99907.28;;;29.81;18.58
30724;BME280;17473;52.286;20.930;2023-04-23T08:28:21;99907.84;;;29.00;18.94
30724;BME280;17473;52.286;20.930;2023-04-23T08:30:49;99899.16;;;29.11;19.39
30724;BME280;17473;52.286;20.930;2023-04-23T08:33:16;99914.50;;;28.18;19.98
30724;BME280;17473;52.286;20.930;2023-04-23T08:35:43;99913.53;;;27.79;20.27
30724;BME280;17473;52.286;20.930;2023-04-23T08:38:10;99894.78;;;28.14;20.08
30724;BME280;17473;52.286;20.930;2023-04-23T08:40:41;99898.03;;;28.02;20.21
30724;BME280;17473;52.286;20.930;2023-04-23T08:43:20;99895.22;;;28.03;20.39
30724;BME280;17473;52.286;20.930;2023-04-23T08:45:52;99895.34;;;28.21;20.05
30724;BME280;17473;52.286;20.930;2023-04-23T08:48:20;99892.06;;;28.14;20.41
30724;BME280;17473;52.286;20.930;2023-04-23T08:50:47;99898.50;;;27.51;20.43
30724;BME280;17473;52.286;20.930;2023-04-23T08:53:18;99886.47;;;27.57;20.80
30724;BME280;17473;52.286;20.930;2023-04-23T08:55:48;99885.44;;;27.39;21.02
30724;BME280;17473;52.286;20.930;2023-04-23T08:58:16;99886.94;;;27.25;20.39
30724;BME280;17473;52.286;20.930;2023-04-23T09:00:44;99878.63;;;27.71;20.26
30724;BME280;17473;52.286;20.930;2023-04-23T09:03:11;99888.56;;;27.71;20.40
30724;BME280;17473;52.286;20.930;2023-04-23T09:05:39;99877.22;;;28.40;20.01
30724;BME280;17473;52.286;20.930;2023-04-23T09:08:06;99877.25;;;28.21;20.10
30724;BME280;17473;52.286;20.930;2023-04-23T09:10:36;99866.59;;;28.36;19.69
30724;BME280;17473;52.286;20.930;2023-04-23T09:13:05;99867.38;;;28.57;19.54
30724;BME280;17473;52.286;20.930;2023-04-23T09:15:33;99866.22;;;28.82;19.37
30724;BME280;17473;52.286;20.930;2023-04-23T09:18:09;99866.72;;;29.60;18.94
30724;BME280;17473;52.286;20.930;2023-04-23T09:20:36;99856.31;;;28.98;19.54
30724;BME280;17473;52.286;20.930;2023-04-23T09:23:07;99876.66;;;28.72;19.25
30724;BME280;17473;52.286;20.930;2023-04-23T09:25:34;99863.19;;;29.05;19.08
30724;BME280;17473;52.286;20.930;2023-04-23T09:28:07;99858.16;;;29.50;19.00
30724;BME280;17473;52.286;20.930;2023-04-23T09:30:43;99850.22;;;28.56;19.38
30724;BME280;17473;52.286;20.930;2023-04-23T09:33:16;99876.88;;;28.10;19.98
30724;BME280;17473;52.286;20.930;2023-04-23T09:35:43;99870.06;;;27.18;20.68
30724;BME280;17473;52.286;20.930;2023-04-23T09:38:11;99854.06;;;27.12;20.87
30724;BME280;17473;52.286;20.930;2023-04-23T09:40:38;99850.81;;;27.04;20.21
30724;BME280;17473;52.286;20.930;2023-04-23T09:43:05;99857.22;;;27.65;19.97
30724;BME280;17473;52.286;20.930;2023-04-23T09:45:36;99860.91;;;27.83;19.57
30724;BME280;17473;52.286;20.930;2023-04-23T09:48:04;99854.16;;;28.32;19.36
30724;BME280;17473;52.286;20.930;2023-04-23T09:50:36;99851.91;;;27.43;20.00
30724;BME280;17473;52.286;20.930;2023-04-23T09:53:06;99848.31;;;27.20;20.53
30724;BME280;17473;52.286;20.930;2023-04-23T09:55:36;99845.13;;;27.31;20.14
30724;BME280;17473;52.286;20.930;2023-04-23T09:58:13;99843.50;;;27.06;20.38
30724;BME280;17473;52.286;20.930;2023-04-23T10:00:42;99839.94;;;27.06;20.26
30724;BME280;17473;52.286;20.930;2023-04-23T10:03:09;99829.28;;;27.63;19.90
30724;BME280;17473;52.286;20.930;2023-04-23T10:05:42;99824.41;;;27.30;20.60
30724;BME280;17473;52.286;20.930;2023-04-23T10:08:12;99826.69;;;27.39;20.31
30724;BME280;17473;52.286;20.930;2023-04-23T10:10:40;99828.06;;;27.89;19.68
30724;BME280;17473;52.286;20.930;2023-04-23T10:13:10;99824.09;;;27.77;19.81
30724;BME280;17473;52.286;20.930;2023-04-23T10:15:37;99822.41;;;27.56;20.06
30724;BME280;17473;52.286;20.930;2023-04-23T10:18:06;99817.56;;;26.58;20.46
30724;BME280;17473;52.286;20.930;2023-04-23T10:20:34;99817.91;;;27.13;20.25
30724;BME280;17473;52.286;20.930;2023-04-23T10:23:02;99827.72;;;27.37;20.50
30724;BME280;17473;52.286;20.930;2023-04-23T10:25:30;99803.81;;;26.62;20.64
30724;BME280;17473;52.286;20.930;2023-04-23T10:28:00;99807.88;;;26.72;20.76
30724;BME280;17473;52.286;20.930;2023-04-23T10:30:28;99804.97;;;26.56;21.07
30724;BME280;17473;52.286;20.930;2023-04-23T10:32:56;99808.97;;;26.91;20.38
30724;BME280;17473;52.286;20.930;2023-04-23T10:35:26;99808.78;;;26.51;20.56
30724;BME280;17473;52.286;20.930;2023-04-23T10:37:53;99802.09;;;26.82;20.70
30724;BME280;17473;52.286;20.930;2023-04-23T10:40:31;99792.72;;;26.91;20.58
30724;BME280;17473;52.286;20.930;2023-04-23T10:42:59;99802.69;;;27.11;20.18
30724;BME280;17473;52.286;20.930;2023-04-23T10:45:29;99802.34;;;27.18;19.96
30724;BME280;17473;52.286;20.930;2023-04-23T10:47:58;99790.69;;;26.53;20.85
30724;BME280;17473;52.286;20.930;2023-04-23T10:50:33;99792.13;;;26.39;21.14
30724;BME280;17473;52.286;20.930;2023-04-23T10:53:02;99785.66;;;26.44;20.75
30724;BME280;17473;52.286;20.930;2023-04-23T10:55:31;99779.72;;;25.88;21.61
30724;BME280;17473;52.286;20.930;2023-04-23T10:58:06;99780.03;;;26.48;20.79
30724;BME280;17473;52.286;20.930;2023-04-23T11:03:29;99779.19;;;26.02;21.31
30724;BME280;17473;52.286;20.930;2023-04-23T11:06:02;99788.94;;;25.82;21.77
30724;BME280;17473;52.286;20.930;2023-04-23T11:08:30;99774.78;;;25.99;21.14
30724;BME280;17473;52.286;20.930;2023-04-23T11:10:59;99778.66;;;25.44;21.38
30724;BME280;17473;52.286;20.930;2023-04-23T11:13:28;99778.38;;;25.27;21.91
30724;BME280;17473;52.286;20.930;2023-04-23T11:16:21;99768.50;;;25.00;21.95
30724;BME280;17473;52.286;20.930;2023-04-23T11:21:59;99755.44;;;25.13;21.87
30724;BME280;17473;52.286;20.930;2023-04-23T11:24:32;99755.66;;;24.82;22.82
30724;BME280;17473;52.286;20.930;2023-04-23T11:27:00;99754.63;;;25.11;22.30
30724;BME280;17473;52.286;20.930;2023-04-23T11:29:28;99755.78;;;25.04;22.11
30724;BME280;17473;52.286;20.930;2023-04-23T11:31:56;99751.53;;;25.22;21.94
30724;BME280;17473;52.286;20.930;2023-04-23T11:34:31;99749.38;;;24.54;22.13
30724;BME280;17473;52.286;20.930;2023-04-23T11:36:59;99744.59;;;24.36;22.49
30724;BME280;17473;52.286;20.930;2023-04-23T11:39:27;99739.31;;;24.33;22.70
30724;BME280;17473;52.286;20.930;2023-04-23T11:41:54;99747.66;;;24.52;22.56
30724;BME280;17473;52.286;20.930;2023-04-23T11:44:21;99745.38;;;24.66;22.67
30724;BME280;17473;52.286;20.930;2023-04-23T11:46:49;99753.16;;;23.92;23.09
30724;BME280;17473;52.286;20.930;2023-04-23T11:49:18;99739.81;;;24.17;23.02
30724;BME280;17473;52.286;20.930;2023-04-23T11:51:47;99749.28;;;24.02;22.95
30724;BME280;17473;52.286;20.930;2023-04-23T11:54:14;99741.03;;;24.07;22.91
30724;BME280;17473;52.286;20.930;2023-04-23T11:56:42;99733.28;;;24.25;22.32
30724;BME280;17473;52.286;20.930;2023-04-23T11:59:09;99739.47;;;24.28;22.43
30724;BME280;17473;52.286;20.930;2023-04-23T12:01:45;99738.97;;;23.57;23.58
30724;BME280;17473;52.286;20.930;2023-04-23T12:04:20;99739.38;;;23.73;23.39
30724;BME280;17473;52.286;20.930;2023-04-23T12:06:49;99742.72;;;23.81;23.76
30724;BME280;17473;52.286;20.930;2023-04-23T12:09:19;99736.56;;;23.76;23.52
30724;BME280;17473;52.286;20.930;2023-04-23T12:11:48;99731.03;;;23.82;23.17
30724;BME280;17473;52.286;20.930;2023-04-23T12:14:25;99732.88;;;23.80;23.13
30724;BME280;17473;52.286;20.930;2023-04-23T12:16:56;99737.56;;;23.73;23.42
30724;BME280;17473;52.286;20.930;2023-04-23T12:19:29;99731.59;;;23.92;23.10
30724;BME280;17473;52.286;20.930;2023-04-23T12:22:01;99736.41;;;23.82;23.12
30724;BME280;17473;52.286;20.930;2023-04-23T12:24:49;99724.09;;;24.03;23.17
30724;BME280;17473;52.286;20.930;2023-04-23T12:27:19;99726.56;;;23.81;23.47
30724;BME280;17473;52.286;20.930;2023-04-23T12:30:01;99717.63;;;23.49;23.63
30724;BME280;17473;52.286;20.930;2023-04-23T12:32:33;99709.78;;;23.71;23.61
30724;BME280;17473;52.286;20.930;2023-04-23T12:35:00;99688.91;;;23.78;23.59
30724;BME280;17473;52.286;20.930;2023-04-23T12:37:29;99709.00;;;23.68;23.54
30724;BME280;17473;52.286;20.930;2023-04-23T12:39:56;99708.97;;;23.69;23.72
30724;BME280;17473;52.286;20.930;2023-04-23T12:42:25;99703.44;;;23.74;23.54
30724;BME280;17473;52.286;20.930;2023-04-23T12:44:53;99691.66;;;23.76;23.38
30724;BME280;17473;52.286;20.930;2023-04-23T12:47:23;99693.97;;;23.89;23.59
30724;BME280;17473;52.286;20.930;2023-04-23T12:49:50;99695.09;;;23.82;23.60
30724;BME280;17473;52.286;20.930;2023-04-23T12:52:21;99700.38;;;23.85;22.99
30724;BME280;17473;52.286;20.930;2023-04-23T12:54:48;99705.47;;;23.66;23.11
30724;BME280;17473;52.286;20.930;2023-04-23T12:57:18;99691.13;;;23.65;23.70
30724;BME280;17473;52.286;20.930;2023-04-23T12:59:49;99682.91;;;23.40;23.65
30724;BME280;17473;52.286;20.930;2023-04-23T13:02:16;99673.88;;;23.42;23.51